sensor_id;sensor_type;location;lat;lon;timestamp;P1;durP1;ratioP1;P2;durP2;ratioP2
1479;SDS011;732;51.698;4.886;2023-06-10T00:00:04;16.30;;;12.07;;
1479;SDS011;732;51.698;4.886;2023-06-10T00:02:42;14.17;;;11.97;;
1479;SDS011;732;51.698;4.886;2023-06-10T00:05:11;13.50;;;12.07;;
1479;SDS011;732;51.698;4.886;2023-06-10T00:07:39;12.97;;;11.67;;
1479;SDS011;732;51.698;4.886;2023-06-10T00:10:08;13.03;;;11.83;;
1479;SDS011;732;51.698;4.886;2023-06-10T00:12:37;15.20;;;12.57;;
1479;SDS011;732;51.698;4.886;2023-06-10T00:15:07;13.40;;;12.00;;
1479;SDS011;732;51.698;4.886;2023-06-10T00:17:37;14.30;;;11.77;;
1479;SDS011;732;51.698;4.886;2023-06-10T00:20:09;13.33;;;12.03;;
1479;SDS011;732;51.698;4.886;2023-06-10T00:22:39;14.57;;;12.63;;
1479;SDS011;732;51.698;4.886;2023-06-10T00:25:08;11.40;;;10.30;;
1479;SDS011;732;51.698;4.886;2023-06-10T00:27:38;22.97;;;12.30;;
1479;SDS011;732;51.698;4.886;2023-06-10T00:30:07;12.13;;;10.93;;
1479;SDS011;732;51.698;4.886;2023-06-10T00:32:37;13.00;;;11.70;;
1479;SDS011;732;51.698;4.886;2023-06-10T00:35:06;11.97;;;10.83;;
1479;SDS011;732;51.698;4.886;2023-06-10T00:37:37;12.50;;;11.20;;
1479;SDS011;732;51.698;4.886;2023-06-10T00:40:05;13.83;;;12.43;;
1479;SDS011;732;51.698;4.886;2023-06-10T00:42:36;12.60;;;11.40;;
1479;SDS011;732;51.698;4.886;2023-06-10T00:45:05;15.40;;;12.67;;
1479;SDS011;732;51.698;4.886;2023-06-10T00:47:35;13.43;;;11.80;;
1479;SDS011;732;51.698;4.886;2023-06-10T00:50:06;12.70;;;11.40;;
1479;SDS011;732;51.698;4.886;2023-06-10T00:52:37;13.13;;;11.80;;
1479;SDS011;732;51.698;4.886;2023-06-10T00:55:08;12.70;;;11.40;;
1479;SDS011;732;51.698;4.886;2023-06-10T00:57:37;12.80;;;11.47;;
1479;SDS011;732;51.698;4.886;2023-06-10T01:00:06;14.33;;;12.37;;
1479;SDS011;732;51.698;4.886;2023-06-10T01:02:36;13.23;;;11.83;;
1479;SDS011;732;51.698;4.886;2023-06-10T01:05:05;14.73;;;11.80;;
1479;SDS011;732;51.698;4.886;2023-06-10T01:07:38;13.50;;;12.20;;
1479;SDS011;732;51.698;4.886;2023-06-10T01:10:16;13.70;;;12.40;;
1479;SDS011;732;51.698;4.886;2023-06-10T01:12:52;14.77;;;13.00;;
1479;SDS011;732;51.698;4.886;2023-06-10T01:15:29;16.37;;;11.77;;
1479;SDS011;732;51.698;4.886;2023-06-10T01:18:00;13.83;;;12.53;;
1479;SDS011;732;51.698;4.886;2023-06-10T01:20:30;15.43;;;12.77;;
1479;SDS011;732;51.698;4.886;2023-06-10T01:23:01;13.83;;;12.30;;
1479;SDS011;732;51.698;4.886;2023-06-10T01:25:30;13.20;;;11.93;;
1479;SDS011;732;51.698;4.886;2023-06-10T01:28:04;12.90;;;11.60;;
1479;SDS011;732;51.698;4.886;2023-06-10T01:30:43;13.57;;;12.20;;
1479;SDS011;732;51.698;4.886;2023-06-10T01:33:22;13.37;;;12.07;;
1479;SDS011;732;51.698;4.886;2023-06-10T01:35:57;13.73;;;12.33;;
1479;SDS011;732;51.698;4.886;2023-06-10T01:38:30;13.97;;;12.50;;
1479;SDS011;732;51.698;4.886;2023-06-10T01:41:04;15.17;;;13.43;;
1479;SDS011;732;51.698;4.886;2023-06-10T01:43:34;14.43;;;13.00;;
1479;SDS011;732;51.698;4.886;2023-06-10T01:46:05;15.80;;;14.17;;
1479;SDS011;732;51.698;4.886;2023-06-10T01:48:34;16.63;;;13.50;;
1479;SDS011;732;51.698;4.886;2023-06-10T01:51:02;18.03;;;13.33;;
1479;SDS011;732;51.698;4.886;2023-06-10T01:53:32;15.07;;;13.57;;
1479;SDS011;732;51.698;4.886;2023-06-10T01:56:01;16.83;;;14.17;;
1479;SDS011;732;51.698;4.886;2023-06-10T01:58:29;15.43;;;13.93;;
1479;SDS011;732;51.698;4.886;2023-06-10T02:00:58;17.20;;;14.40;;
1479;SDS011;732;51.698;4.886;2023-06-10T02:03:26;15.77;;;14.17;;
1479;SDS011;732;51.698;4.886;2023-06-10T02:05:55;16.30;;;14.40;;
1479;SDS011;732;51.698;4.886;2023-06-10T02:08:23;16.23;;;14.50;;
1479;SDS011;732;51.698;4.886;2023-06-10T02:10:53;18.80;;;15.47;;
1479;SDS011;732;51.698;4.886;2023-06-10T02:13:21;16.43;;;14.63;;
1479;SDS011;732;51.698;4.886;2023-06-10T02:15:53;21.37;;;15.43;;
1479;SDS011;732;51.698;4.886;2023-06-10T02:18:21;18.20;;;15.90;;
1479;SDS011;732;51.698;4.886;2023-06-10T02:20:49;16.13;;;14.43;;
1479;SDS011;732;51.698;4.886;2023-06-10T02:23:18;16.67;;;14.93;;
1479;SDS011;732;51.698;4.886;2023-06-10T02:25:46;16.33;;;14.83;;
1479;SDS011;732;51.698;4.886;2023-06-10T02:28:16;17.20;;;15.50;;
1479;SDS011;732;51.698;4.886;2023-06-10T02:30:44;17.20;;;15.40;;
1479;SDS011;732;51.698;4.886;2023-06-10T02:33:14;20.63;;;15.03;;
1479;SDS011;732;51.698;4.886;2023-06-10T02:35:44;17.20;;;15.50;;
1479;SDS011;732;51.698;4.886;2023-06-10T02:38:12;17.03;;;15.33;;
1479;SDS011;732;51.698;4.886;2023-06-10T02:40:42;16.77;;;14.97;;
1479;SDS011;732;51.698;4.886;2023-06-10T02:43:11;18.20;;;16.30;;
1479;SDS011;732;51.698;4.886;2023-06-10T02:45:41;22.00;;;15.53;;
1479;SDS011;732;51.698;4.886;2023-06-10T02:48:10;18.80;;;16.30;;
1479;SDS011;732;51.698;4.886;2023-06-10T02:50:39;17.80;;;15.63;;
1479;SDS011;732;51.698;4.886;2023-06-10T02:53:29;16.53;;;14.93;;
1479;SDS011;732;51.698;4.886;2023-06-10T02:56:04;18.17;;;16.00;;
1479;SDS011;732;51.698;4.886;2023-06-10T02:58:32;17.47;;;15.60;;
1479;SDS011;732;51.698;4.886;2023-06-10T03:01:03;21.07;;;17.50;;
1479;SDS011;732;51.698;4.886;2023-06-10T03:03:43;17.77;;;15.87;;
1479;SDS011;732;51.698;4.886;2023-06-10T03:06:15;18.73;;;16.83;;
1479;SDS011;732;51.698;4.886;2023-06-10T03:08:44;19.07;;;17.07;;
1479;SDS011;732;51.698;4.886;2023-06-10T03:11:16;21.70;;;16.67;;
1479;SDS011;732;51.698;4.886;2023-06-10T03:13:46;18.70;;;16.80;;
1479;SDS011;732;51.698;4.886;2023-06-10T03:16:18;18.13;;;16.30;;
1479;SDS011;732;51.698;4.886;2023-06-10T03:18:48;18.40;;;16.50;;
1479;SDS011;732;51.698;4.886;2023-06-10T03:21:17;19.33;;;17.27;;
1479;SDS011;732;51.698;4.886;2023-06-10T03:23:45;18.50;;;16.60;;
1479;SDS011;732;51.698;4.886;2023-06-10T03:26:13;19.43;;;17.33;;
1479;SDS011;732;51.698;4.886;2023-06-10T03:28:46;20.07;;;16.73;;
1479;SDS011;732;51.698;4.886;2023-06-10T03:31:15;19.23;;;16.80;;
1479;SDS011;732;51.698;4.886;2023-06-10T03:33:46;18.60;;;16.53;;
1479;SDS011;732;51.698;4.886;2023-06-10T03:36:14;18.83;;;16.80;;
1479;SDS011;732;51.698;4.886;2023-06-10T03:38:43;18.80;;;16.97;;
1479;SDS011;732;51.698;4.886;2023-06-10T03:41:11;18.20;;;16.40;;
1479;SDS011;732;51.698;4.886;2023-06-10T03:43:41;20.33;;;16.80;;
1479;SDS011;732;51.698;4.886;2023-06-10T03:46:12;18.63;;;16.40;;
1479;SDS011;732;51.698;4.886;2023-06-10T03:48:41;19.53;;;16.03;;
1479;SDS011;732;51.698;4.886;2023-06-10T03:51:11;20.53;;;16.93;;
1479;SDS011;732;51.698;4.886;2023-06-10T03:53:39;18.83;;;16.53;;
1479;SDS011;732;51.698;4.886;2023-06-10T03:56:07;19.00;;;17.03;;
1479;SDS011;732;51.698;4.886;2023-06-10T03:58:36;18.93;;;17.00;;
1479;SDS011;732;51.698;4.886;2023-06-10T04:01:05;19.83;;;15.87;;
1479;SDS011;732;51.698;4.886;2023-06-10T04:03:35;18.60;;;16.63;;
1479;SDS011;732;51.698;4.886;2023-06-10T04:06:03;17.63;;;15.83;;
1479;SDS011;732;51.698;4.886;2023-06-10T04:08:33;18.07;;;16.30;;
1479;SDS011;732;51.698;4.886;2023-06-10T04:11:02;18.43;;;16.40;;
1479;SDS011;732;51.698;4.886;2023-06-10T04:13:30;18.60;;;16.10;;
1479;SDS011;732;51.698;4.886;2023-06-10T04:15:58;19.43;;;17.33;;
1479;SDS011;732;51.698;4.886;2023-06-10T04:18:27;17.80;;;16.00;;
1479;SDS011;732;51.698;4.886;2023-06-10T04:20:59;19.33;;;15.60;;
1479;SDS011;732;51.698;4.886;2023-06-10T04:23:29;18.40;;;15.40;;
1479;SDS011;732;51.698;4.886;2023-06-10T04:25:59;17.60;;;15.80;;
1479;SDS011;732;51.698;4.886;2023-06-10T04:28:32;17.73;;;15.90;;
1479;SDS011;732;51.698;4.886;2023-06-10T04:31:00;16.90;;;15.10;;
1479;SDS011;732;51.698;4.886;2023-06-10T04:33:32;16.53;;;14.73;;
1479;SDS011;732;51.698;4.886;2023-06-10T04:36:02;20.37;;;16.17;;
1479;SDS011;732;51.698;4.886;2023-06-10T04:38:34;17.60;;;15.80;;
1479;SDS011;732;51.698;4.886;2023-06-10T04:41:04;20.93;;;15.40;;
1479;SDS011;732;51.698;4.886;2023-06-10T04:43:34;16.80;;;15.00;;
1479;SDS011;732;51.698;4.886;2023-06-10T04:46:03;16.00;;;14.40;;
1479;SDS011;732;51.698;4.886;2023-06-10T04:48:35;17.63;;;14.10;;
1479;SDS011;732;51.698;4.886;2023-06-10T04:51:03;17.40;;;14.90;;
1479;SDS011;732;51.698;4.886;2023-06-10T04:53:35;17.70;;;14.40;;
1479;SDS011;732;51.698;4.886;2023-06-10T04:56:05;16.53;;;14.83;;
1479;SDS011;732;51.698;4.886;2023-06-10T04:58:34;15.87;;;14.27;;
1479;SDS011;732;51.698;4.886;2023-06-10T05:01:02;16.20;;;13.93;;
1479;SDS011;732;51.698;4.886;2023-06-10T05:03:34;16.60;;;13.53;;
1479;SDS011;732;51.698;4.886;2023-06-10T05:06:05;16.33;;;13.73;;
1479;SDS011;732;51.698;4.886;2023-06-10T05:08:33;14.80;;;13.03;;
1479;SDS011;732;51.698;4.886;2023-06-10T05:11:02;17.50;;;13.37;;
1479;SDS011;732;51.698;4.886;2023-06-10T05:13:34;16.13;;;13.80;;
1479;SDS011;732;51.698;4.886;2023-06-10T05:16:02;14.83;;;13.23;;
1479;SDS011;732;51.698;4.886;2023-06-10T05:18:31;16.43;;;13.00;;
1479;SDS011;732;51.698;4.886;2023-06-10T05:21:02;16.37;;;13.53;;
1479;SDS011;732;51.698;4.886;2023-06-10T05:23:31;16.93;;;13.40;;
1479;SDS011;732;51.698;4.886;2023-06-10T05:26:00;17.00;;;12.43;;
1479;SDS011;732;51.698;4.886;2023-06-10T05:28:28;24.23;;;13.77;;
1479;SDS011;732;51.698;4.886;2023-06-10T05:30:58;14.93;;;13.03;;
1479;SDS011;732;51.698;4.886;2023-06-10T05:33:27;17.60;;;12.97;;
1479;SDS011;732;51.698;4.886;2023-06-10T05:35:57;17.50;;;12.83;;
1479;SDS011;732;51.698;4.886;2023-06-10T05:38:26;19.30;;;13.90;;
1479;SDS011;732;51.698;4.886;2023-06-10T05:40:59;14.90;;;12.40;;
1479;SDS011;732;51.698;4.886;2023-06-10T05:43:30;14.80;;;12.40;;
1479;SDS011;732;51.698;4.886;2023-06-10T05:46:02;20.30;;;12.80;;
1479;SDS011;732;51.698;4.886;2023-06-10T05:48:33;13.70;;;12.30;;
1479;SDS011;732;51.698;4.886;2023-06-10T05:51:03;12.80;;;11.50;;
1479;SDS011;732;51.698;4.886;2023-06-10T05:53:36;16.40;;;13.67;;
1479;SDS011;732;51.698;4.886;2023-06-10T05:56:06;15.80;;;12.17;;
1479;SDS011;732;51.698;4.886;2023-06-10T05:58:36;19.20;;;12.50;;
1479;SDS011;732;51.698;4.886;2023-06-10T06:01:08;16.80;;;11.87;;
1479;SDS011;732;51.698;4.886;2023-06-10T06:03:36;17.50;;;12.20;;
1479;SDS011;732;51.698;4.886;2023-06-10T06:06:05;16.60;;;12.50;;
1479;SDS011;732;51.698;4.886;2023-06-10T06:08:33;15.00;;;12.60;;
1479;SDS011;732;51.698;4.886;2023-06-10T06:11:02;16.80;;;13.17;;
1479;SDS011;732;51.698;4.886;2023-06-10T06:13:33;18.53;;;12.40;;
1479;SDS011;732;51.698;4.886;2023-06-10T06:16:02;16.20;;;12.20;;
1479;SDS011;732;51.698;4.886;2023-06-10T06:18:32;15.87;;;12.33;;
1479;SDS011;732;51.698;4.886;2023-06-10T06:21:01;17.87;;;12.83;;
1479;SDS011;732;51.698;4.886;2023-06-10T06:23:32;17.70;;;13.60;;
1479;SDS011;732;51.698;4.886;2023-06-10T06:26:03;17.43;;;13.70;;
1479;SDS011;732;51.698;4.886;2023-06-10T06:28:37;14.90;;;12.97;;
1479;SDS011;732;51.698;4.886;2023-06-10T06:31:05;18.33;;;12.43;;
1479;SDS011;732;51.698;4.886;2023-06-10T06:33:36;17.73;;;13.70;;
1479;SDS011;732;51.698;4.886;2023-06-10T06:36:05;14.87;;;13.27;;
1479;SDS011;732;51.698;4.886;2023-06-10T06:38:36;18.00;;;12.70;;
1479;SDS011;732;51.698;4.886;2023-06-10T06:41:04;17.80;;;11.43;;
1479;SDS011;732;51.698;4.886;2023-06-10T06:43:33;15.33;;;13.30;;
1479;SDS011;732;51.698;4.886;2023-06-10T06:46:09;16.90;;;13.20;;
1479;SDS011;732;51.698;4.886;2023-06-10T06:48:41;19.50;;;13.03;;
1479;SDS011;732;51.698;4.886;2023-06-10T06:51:09;15.20;;;12.30;;
1479;SDS011;732;51.698;4.886;2023-06-10T06:53:38;13.53;;;11.53;;
1479;SDS011;732;51.698;4.886;2023-06-10T06:56:10;14.67;;;12.30;;
1479;SDS011;732;51.698;4.886;2023-06-10T06:58:42;18.60;;;12.63;;
1479;SDS011;732;51.698;4.886;2023-06-10T07:01:12;18.47;;;12.50;;
1479;SDS011;732;51.698;4.886;2023-06-10T07:03:43;24.17;;;13.70;;
1479;SDS011;732;51.698;4.886;2023-06-10T07:06:15;19.70;;;12.20;;
1479;SDS011;732;51.698;4.886;2023-06-10T07:08:46;14.23;;;11.87;;
1479;SDS011;732;51.698;4.886;2023-06-10T07:11:17;14.43;;;11.87;;
1479;SDS011;732;51.698;4.886;2023-06-10T07:13:45;18.07;;;12.10;;
1479;SDS011;732;51.698;4.886;2023-06-10T07:16:13;19.43;;;12.73;;
1479;SDS011;732;51.698;4.886;2023-06-10T07:18:48;17.80;;;12.60;;
1479;SDS011;732;51.698;4.886;2023-06-10T07:21:16;14.30;;;12.30;;
1479;SDS011;732;51.698;4.886;2023-06-10T07:23:50;14.77;;;11.43;;
1479;SDS011;732;51.698;4.886;2023-06-10T07:26:21;15.07;;;11.40;;
1479;SDS011;732;51.698;4.886;2023-06-10T07:28:50;16.27;;;11.83;;
1479;SDS011;732;51.698;4.886;2023-06-10T07:31:18;16.30;;;10.80;;
1479;SDS011;732;51.698;4.886;2023-06-10T07:33:47;15.57;;;11.93;;
1479;SDS011;732;51.698;4.886;2023-06-10T07:36:16;15.03;;;11.33;;
1479;SDS011;732;51.698;4.886;2023-06-10T07:38:45;14.73;;;11.40;;
1479;SDS011;732;51.698;4.886;2023-06-10T07:41:13;14.57;;;10.27;;
1479;SDS011;732;51.698;4.886;2023-06-10T07:43:44;18.27;;;11.10;;
1479;SDS011;732;51.698;4.886;2023-06-10T07:46:20;14.40;;;9.80;;
1479;SDS011;732;51.698;4.886;2023-06-10T07:48:51;13.57;;;10.10;;
1479;SDS011;732;51.698;4.886;2023-06-10T07:51:23;13.17;;;10.27;;
1479;SDS011;732;51.698;4.886;2023-06-10T07:53:52;12.53;;;9.77;;
1479;SDS011;732;51.698;4.886;2023-06-10T07:56:23;13.57;;;10.03;;
1479;SDS011;732;51.698;4.886;2023-06-10T07:58:52;15.13;;;9.07;;
1479;SDS011;732;51.698;4.886;2023-06-10T08:01:22;12.50;;;9.40;;
1479;SDS011;732;51.698;4.886;2023-06-10T08:03:53;13.07;;;9.13;;
1479;SDS011;732;51.698;4.886;2023-06-10T08:06:22;12.10;;;9.30;;
1479;SDS011;732;51.698;4.886;2023-06-10T08:08:50;12.97;;;9.50;;
1479;SDS011;732;51.698;4.886;2023-06-10T08:11:19;11.60;;;9.23;;
1479;SDS011;732;51.698;4.886;2023-06-10T08:13:47;12.53;;;10.07;;
1479;SDS011;732;51.698;4.886;2023-06-10T08:16:16;13.03;;;8.90;;
1479;SDS011;732;51.698;4.886;2023-06-10T08:18:44;9.50;;;8.47;;
1479;SDS011;732;51.698;4.886;2023-06-10T08:21:14;11.83;;;8.47;;
1479;SDS011;732;51.698;4.886;2023-06-10T08:23:42;11.10;;;8.80;;
1479;SDS011;732;51.698;4.886;2023-06-10T08:26:11;9.70;;;8.33;;
1479;SDS011;732;51.698;4.886;2023-06-10T08:28:39;14.33;;;7.60;;
1479;SDS011;732;51.698;4.886;2023-06-10T08:31:08;12.40;;;8.50;;
1479;SDS011;732;51.698;4.886;2023-06-10T08:33:36;11.30;;;7.97;;
1479;SDS011;732;51.698;4.886;2023-06-10T08:36:04;10.33;;;7.67;;
1479;SDS011;732;51.698;4.886;2023-06-10T08:38:34;9.33;;;8.40;;
1479;SDS011;732;51.698;4.886;2023-06-10T08:41:05;9.23;;;7.23;;
1479;SDS011;732;51.698;4.886;2023-06-10T08:43:34;9.63;;;7.73;;
1479;SDS011;732;51.698;4.886;2023-06-10T08:46:11;9.07;;;7.90;;
1479;SDS011;732;51.698;4.886;2023-06-10T08:48:42;12.30;;;8.00;;
1479;SDS011;732;51.698;4.886;2023-06-10T08:51:12;8.87;;;8.00;;
1479;SDS011;732;51.698;4.886;2023-06-10T08:53:48;9.43;;;8.30;;
1479;SDS011;732;51.698;4.886;2023-06-10T08:56:21;9.70;;;8.17;;
1479;SDS011;732;51.698;4.886;2023-06-10T08:58:52;10.77;;;8.93;;
1479;SDS011;732;51.698;4.886;2023-06-10T09:01:21;9.43;;;7.80;;
1479;SDS011;732;51.698;4.886;2023-06-10T09:03:51;9.83;;;7.23;;
1479;SDS011;732;51.698;4.886;2023-06-10T09:06:20;14.70;;;8.10;;
1479;SDS011;732;51.698;4.886;2023-06-10T09:08:51;9.47;;;8.17;;
1479;SDS011;732;51.698;4.886;2023-06-10T09:11:20;8.60;;;7.70;;
1479;SDS011;732;51.698;4.886;2023-06-10T09:13:48;10.87;;;8.23;;
1479;SDS011;732;51.698;4.886;2023-06-10T09:16:17;11.13;;;7.53;;
1479;SDS011;732;51.698;4.886;2023-06-10T09:18:46;11.33;;;7.50;;
1479;SDS011;732;51.698;4.886;2023-06-10T09:21:15;9.73;;;8.23;;
1479;SDS011;732;51.698;4.886;2023-06-10T09:23:43;9.97;;;7.23;;
1479;SDS011;732;51.698;4.886;2023-06-10T09:26:14;8.87;;;7.47;;
1479;SDS011;732;51.698;4.886;2023-06-10T09:28:43;8.90;;;7.43;;
1479;SDS011;732;51.698;4.886;2023-06-10T09:31:12;9.50;;;7.37;;
1479;SDS011;732;51.698;4.886;2023-06-10T09:33:44;8.17;;;7.30;;
1479;SDS011;732;51.698;4.886;2023-06-10T09:36:21;10.93;;;7.23;;
1479;SDS011;732;51.698;4.886;2023-06-10T09:38:51;8.60;;;7.23;;
1479;SDS011;732;51.698;4.886;2023-06-10T09:41:21;8.20;;;7.30;;
1479;SDS011;732;51.698;4.886;2023-06-10T09:43:59;9.03;;;7.80;;
1479;SDS011;732;51.698;4.886;2023-06-10T09:46:30;8.50;;;7.33;;
1479;SDS011;732;51.698;4.886;2023-06-10T09:49:00;8.13;;;6.80;;
1479;SDS011;732;51.698;4.886;2023-06-10T09:51:28;8.90;;;7.80;;
1479;SDS011;732;51.698;4.886;2023-06-10T09:53:57;12.47;;;8.43;;
1479;SDS011;732;51.698;4.886;2023-06-10T09:56:34;10.30;;;6.70;;
1479;SDS011;732;51.698;4.886;2023-06-10T09:59:03;8.07;;;7.20;;
1479;SDS011;732;51.698;4.886;2023-06-10T10:01:32;10.40;;;7.27;;
1479;SDS011;732;51.698;4.886;2023-06-10T10:04:01;10.37;;;7.77;;
1479;SDS011;732;51.698;4.886;2023-06-10T10:06:33;8.57;;;6.90;;
1479;SDS011;732;51.698;4.886;2023-06-10T10:09:02;11.40;;;7.53;;
1479;SDS011;732;51.698;4.886;2023-06-10T10:11:31;7.40;;;6.70;;
1479;SDS011;732;51.698;4.886;2023-06-10T10:14:03;9.10;;;7.57;;
1479;SDS011;732;51.698;4.886;2023-06-10T10:16:36;7.97;;;7.17;;
1479;SDS011;732;51.698;4.886;2023-06-10T10:19:10;7.40;;;6.70;;
1479;SDS011;732;51.698;4.886;2023-06-10T10:21:47;8.23;;;7.40;;
1479;SDS011;732;51.698;4.886;2023-06-10T10:24:23;9.40;;;7.87;;
1479;SDS011;732;51.698;4.886;2023-06-10T10:27:03;9.73;;;7.77;;
1479;SDS011;732;51.698;4.886;2023-06-10T10:29:41;10.20;;;7.33;;
1479;SDS011;732;51.698;4.886;2023-06-10T10:32:14;17.30;;;7.73;;
1479;SDS011;732;51.698;4.886;2023-06-10T10:34:48;9.63;;;6.80;;
1479;SDS011;732;51.698;4.886;2023-06-10T10:37:28;8.03;;;6.83;;
1479;SDS011;732;51.698;4.886;2023-06-10T10:39:56;9.53;;;7.70;;
1479;SDS011;732;51.698;4.886;2023-06-10T10:42:29;12.90;;;7.90;;
1479;SDS011;732;51.698;4.886;2023-06-10T10:44:58;11.67;;;6.57;;
1479;SDS011;732;51.698;4.886;2023-06-10T10:47:27;11.83;;;8.10;;
1479;SDS011;732;51.698;4.886;2023-06-10T10:49:59;7.87;;;7.00;;
1479;SDS011;732;51.698;4.886;2023-06-10T10:52:28;8.67;;;7.20;;
1479;SDS011;732;51.698;4.886;2023-06-10T10:55:19;8.07;;;7.27;;
1479;SDS011;732;51.698;4.886;2023-06-10T10:57:58;8.63;;;7.83;;
1479;SDS011;732;51.698;4.886;2023-06-10T11:00:30;8.77;;;7.97;;
1479;SDS011;732;51.698;4.886;2023-06-10T11:03:04;8.77;;;7.27;;
1479;SDS011;732;51.698;4.886;2023-06-10T11:05:38;7.63;;;6.77;;
1479;SDS011;732;51.698;4.886;2023-06-10T11:08:11;10.63;;;7.07;;
1479;SDS011;732;51.698;4.886;2023-06-10T11:10:40;8.47;;;6.80;;
1479;SDS011;732;51.698;4.886;2023-06-10T11:13:21;8.83;;;8.00;;
1479;SDS011;732;51.698;4.886;2023-06-10T11:15:50;9.77;;;7.83;;
1479;SDS011;732;51.698;4.886;2023-06-10T11:18:22;10.57;;;8.40;;
1479;SDS011;732;51.698;4.886;2023-06-10T11:20:53;10.50;;;8.20;;
1479;SDS011;732;51.698;4.886;2023-06-10T11:23:34;10.17;;;8.10;;
1479;SDS011;732;51.698;4.886;2023-06-10T11:29:07;12.37;;;7.73;;
1479;SDS011;732;51.698;4.886;2023-06-10T11:31:41;7.87;;;7.00;;
1479;SDS011;732;51.698;4.886;2023-06-10T11:34:21;10.00;;;7.43;;
1479;SDS011;732;51.698;4.886;2023-06-10T11:36:51;9.73;;;6.70;;
1479;SDS011;732;51.698;4.886;2023-06-10T11:39:21;11.00;;;7.30;;
1479;SDS011;732;51.698;4.886;2023-06-10T11:41:52;7.90;;;6.43;;
1479;SDS011;732;51.698;4.886;2023-06-10T11:44:27;8.87;;;7.97;;
1479;SDS011;732;51.698;4.886;2023-06-10T11:46:58;9.20;;;7.33;;
1479;SDS011;732;51.698;4.886;2023-06-10T11:49:26;10.83;;;7.30;;
1479;SDS011;732;51.698;4.886;2023-06-10T11:51:55;8.60;;;7.90;;
1479;SDS011;732;51.698;4.886;2023-06-10T11:54:23;8.47;;;7.67;;
1479;SDS011;732;51.698;4.886;2023-06-10T11:56:56;8.37;;;7.57;;
1479;SDS011;732;51.698;4.886;2023-06-10T11:59:28;8.60;;;7.70;;
1479;SDS011;732;51.698;4.886;2023-06-10T12:01:56;7.83;;;7.03;;
1479;SDS011;732;51.698;4.886;2023-06-10T12:04:26;9.13;;;7.27;;
1479;SDS011;732;51.698;4.886;2023-06-10T12:06:54;9.27;;;7.87;;
1479;SDS011;732;51.698;4.886;2023-06-10T12:09:24;8.83;;;7.73;;
1479;SDS011;732;51.698;4.886;2023-06-10T12:11:55;9.73;;;7.93;;
1479;SDS011;732;51.698;4.886;2023-06-10T12:17:36;8.80;;;7.30;;
1479;SDS011;732;51.698;4.886;2023-06-10T12:20:06;8.07;;;7.27;;
1479;SDS011;732;51.698;4.886;2023-06-10T12:22:38;8.73;;;7.83;;
1479;SDS011;732;51.698;4.886;2023-06-10T12:25:10;8.10;;;7.33;;
1479;SDS011;732;51.698;4.886;2023-06-10T12:27:40;8.10;;;7.40;;
1479;SDS011;732;51.698;4.886;2023-06-10T12:30:19;8.50;;;7.70;;
1479;SDS011;732;51.698;4.886;2023-06-10T12:32:50;8.37;;;7.57;;
1479;SDS011;732;51.698;4.886;2023-06-10T12:35:20;9.50;;;7.23;;
1479;SDS011;732;51.698;4.886;2023-06-10T12:37:57;9.50;;;8.50;;
1479;SDS011;732;51.698;4.886;2023-06-10T12:40:31;8.33;;;7.40;;
1479;SDS011;732;51.698;4.886;2023-06-10T12:43:02;8.33;;;7.33;;
1479;SDS011;732;51.698;4.886;2023-06-10T12:45:34;10.30;;;7.50;;
1479;SDS011;732;51.698;4.886;2023-06-10T12:48:11;8.40;;;7.60;;
1479;SDS011;732;51.698;4.886;2023-06-10T12:50:49;10.27;;;7.23;;
1479;SDS011;732;51.698;4.886;2023-06-10T12:53:20;11.40;;;8.27;;
1479;SDS011;732;51.698;4.886;2023-06-10T12:55:50;8.20;;;7.30;;
1479;SDS011;732;51.698;4.886;2023-06-10T12:58:19;7.90;;;7.10;;
1479;SDS011;732;51.698;4.886;2023-06-10T13:00:52;8.43;;;7.63;;
1479;SDS011;732;51.698;4.886;2023-06-10T13:03:23;8.40;;;7.60;;
1479;SDS011;732;51.698;4.886;2023-06-10T13:05:52;10.10;;;7.03;;
1479;SDS011;732;51.698;4.886;2023-06-10T13:08:20;7.83;;;7.13;;
1479;SDS011;732;51.698;4.886;2023-06-10T13:10:51;8.70;;;7.80;;
1479;SDS011;732;51.698;4.886;2023-06-10T13:13:19;9.80;;;7.70;;
1479;SDS011;732;51.698;4.886;2023-06-10T13:15:48;10.97;;;8.17;;
1479;SDS011;732;51.698;4.886;2023-06-10T13:18:19;8.10;;;7.30;;
1479;SDS011;732;51.698;4.886;2023-06-10T13:20:47;9.77;;;7.97;;
1479;SDS011;732;51.698;4.886;2023-06-10T13:23:16;8.57;;;7.73;;
1479;SDS011;732;51.698;4.886;2023-06-10T13:25:45;10.00;;;7.33;;
1479;SDS011;732;51.698;4.886;2023-06-10T13:28:14;8.90;;;7.40;;
1479;SDS011;732;51.698;4.886;2023-06-10T13:30:42;8.97;;;7.47;;
1479;SDS011;732;51.698;4.886;2023-06-10T13:33:22;7.53;;;6.83;;
1479;SDS011;732;51.698;4.886;2023-06-10T13:35:50;8.53;;;7.10;;
1479;SDS011;732;51.698;4.886;2023-06-10T13:38:19;7.73;;;7.03;;
1479;SDS011;732;51.698;4.886;2023-06-10T13:40:47;10.67;;;7.47;;
1479;SDS011;732;51.698;4.886;2023-06-10T13:43:17;7.70;;;7.00;;
1479;SDS011;732;51.698;4.886;2023-06-10T13:45:46;7.10;;;6.37;;
1479;SDS011;732;51.698;4.886;2023-06-10T13:48:15;10.20;;;7.30;;
1479;SDS011;732;51.698;4.886;2023-06-10T13:50:50;9.03;;;6.70;;
1479;SDS011;732;51.698;4.886;2023-06-10T13:53:19;11.10;;;7.50;;
1479;SDS011;732;51.698;4.886;2023-06-10T13:55:47;7.53;;;6.50;;
1479;SDS011;732;51.698;4.886;2023-06-10T13:58:16;7.83;;;7.13;;
1479;SDS011;732;51.698;4.886;2023-06-10T14:00:44;7.13;;;6.50;;
1479;SDS011;732;51.698;4.886;2023-06-10T14:03:13;7.87;;;6.83;;
1479;SDS011;732;51.698;4.886;2023-06-10T14:05:42;8.00;;;7.10;;
1479;SDS011;732;51.698;4.886;2023-06-10T14:08:11;7.10;;;6.40;;
1479;SDS011;732;51.698;4.886;2023-06-10T14:10:40;8.00;;;6.53;;
1479;SDS011;732;51.698;4.886;2023-06-10T14:13:09;10.00;;;7.50;;
1479;SDS011;732;51.698;4.886;2023-06-10T14:15:39;8.10;;;6.90;;
1479;SDS011;732;51.698;4.886;2023-06-10T14:18:07;8.23;;;7.40;;
1479;SDS011;732;51.698;4.886;2023-06-10T14:20:36;8.03;;;6.67;;
1479;SDS011;732;51.698;4.886;2023-06-10T14:23:05;8.43;;;7.57;;
1479;SDS011;732;51.698;4.886;2023-06-10T14:25:36;7.60;;;7.00;;
1479;SDS011;732;51.698;4.886;2023-06-10T14:28:05;7.67;;;6.70;;
1479;SDS011;732;51.698;4.886;2023-06-10T14:30:34;8.63;;;7.53;;
1479;SDS011;732;51.698;4.886;2023-06-10T14:33:02;7.70;;;6.90;;
1479;SDS011;732;51.698;4.886;2023-06-10T14:35:32;7.73;;;5.83;;
1479;SDS011;732;51.698;4.886;2023-06-10T14:38:00;10.50;;;7.00;;
1479;SDS011;732;51.698;4.886;2023-06-10T14:40:33;11.47;;;7.27;;
1479;SDS011;732;51.698;4.886;2023-06-10T14:43:04;7.67;;;6.97;;
1479;SDS011;732;51.698;4.886;2023-06-10T14:45:36;7.77;;;7.00;;
1479;SDS011;732;51.698;4.886;2023-06-10T14:48:05;7.63;;;6.93;;
1479;SDS011;732;51.698;4.886;2023-06-10T14:50:35;7.77;;;7.07;;
1479;SDS011;732;51.698;4.886;2023-06-10T14:53:04;7.90;;;6.70;;
1479;SDS011;732;51.698;4.886;2023-06-10T14:55:34;10.37;;;7.87;;
1479;SDS011;732;51.698;4.886;2023-06-10T14:58:03;7.83;;;6.60;;
1479;SDS011;732;51.698;4.886;2023-06-10T15:00:32;6.80;;;6.10;;
1479;SDS011;732;51.698;4.886;2023-06-10T15:03:02;6.50;;;5.90;;
1479;SDS011;732;51.698;4.886;2023-06-10T15:05:30;9.50;;;7.77;;
1479;SDS011;732;51.698;4.886;2023-06-10T15:07:59;11.10;;;6.97;;
1479;SDS011;732;51.698;4.886;2023-06-10T15:10:28;7.47;;;6.53;;
1479;SDS011;732;51.698;4.886;2023-06-10T15:12:58;7.47;;;6.77;;
1479;SDS011;732;51.698;4.886;2023-06-10T15:15:27;7.70;;;7.00;;
1479;SDS011;732;51.698;4.886;2023-06-10T15:17:57;7.73;;;6.80;;
1479;SDS011;732;51.698;4.886;2023-06-10T15:20:26;7.73;;;7.03;;
1479;SDS011;732;51.698;4.886;2023-06-10T15:22:55;9.93;;;7.60;;
1479;SDS011;732;51.698;4.886;2023-06-10T15:25:24;9.93;;;7.07;;
1479;SDS011;732;51.698;4.886;2023-06-10T15:27:58;9.60;;;6.83;;
1479;SDS011;732;51.698;4.886;2023-06-10T15:30:27;7.50;;;6.73;;
1479;SDS011;732;51.698;4.886;2023-06-10T15:32:55;9.73;;;7.13;;
1479;SDS011;732;51.698;4.886;2023-06-10T15:35:24;8.93;;;6.80;;
1479;SDS011;732;51.698;4.886;2023-06-10T15:37:53;7.03;;;6.40;;